sensor_id;sensor_type;location;lat;lon;timestamp;pressure;altitude;pressure_sealevel;temperature;humidity
20987;BME280;10652;50.306;8.570;2023-04-21T00:01:10;97678.38;;;5.66;100.00
20987;BME280;10652;50.306;8.570;2023-04-21T00:05:13;97691.28;;;5.69;100.00
20987;BME280;10652;50.306;8.570;2023-04-21T00:09:16;97695.41;;;5.76;100.00
20987;BME280;10652;50.306;8.570;2023-04-21T00:13:19;97695.47;;;5.73;100.00
20987;BME280;10652;50.306;8.570;2023-04-21T00:17:21;97695.72;;;5.67;100.00
20987;BME280;10652;50.306;8.570;2023-04-21T00:21:23;97689.72;;;5.64;100.00
20987;BME280;10652;50.306;8.570;2023-04-21T00:25:26;97690.38;;;5.70;100.00
20987;BME280;10652;50.306;8.570;2023-04-21T00:29:28;97688.81;;;5.65;100.00
20987;BME280;10652;50.306;8.570;2023-04-21T00:33:30;97696.75;;;5.62;100.00
20987;BME280;10652;50.306;8.570;2023-04-21T00:37:33;97689.69;;;5.65;100.00
20987;BME280;10652;50.306;8.570;2023-04-21T00:41:35;97693.69;;;5.75;100.00
20987;BME280;10652;50.306;8.570;2023-04-21T00:45:37;97676.69;;;5.64;100.00
20987;BME280;10652;50.306;8.570;2023-04-21T00:49:40;97688.69;;;5.43;100.00
20987;BME280;10652;50.306;8.570;2023-04-21T00:53:43;97690.72;;;5.33;100.00
20987;BME280;10652;50.306;8.570;2023-04-21T00:57:46;97684.59;;;5.36;100.00
20987;BME280;10652;50.306;8.570;2023-04-21T01:01:49;97683.44;;;5.44;100.00
20987;BME280;10652;50.306;8.570;2023-04-21T01:05:55;97678.50;;;5.62;100.00
20987;BME280;10652;50.306;8.570;2023-04-21T01:09:57;97674.25;;;5.59;100.00
20987;BME280;10652;50.306;8.570;2023-04-21T01:14:00;97676.66;;;5.65;100.00
20987;BME280;10652;50.306;8.570;2023-04-21T01:18:02;97676.66;;;5.65;100.00
20987;BME280;10652;50.306;8.570;2023-04-21T01:22:09;97675.66;;;5.69;100.00
20987;BME280;10652;50.306;8.570;2023-04-21T01:26:18;97676.38;;;5.73;100.00
20987;BME280;10652;50.306;8.570;2023-04-21T01:30:20;97675.56;;;5.72;100.00
20987;BME280;10652;50.306;8.570;2023-04-21T01:34:22;97677.31;;;5.72;100.00
20987;BME280;10652;50.306;8.570;2023-04-21T01:38:24;97669.84;;;5.61;100.00
20987;BME280;10652;50.306;8.570;2023-04-21T01:42:28;97676.09;;;5.55;100.00
20987;BME280;10652;50.306;8.570;2023-04-21T01:46:32;97679.44;;;5.59;100.00
20987;BME280;10652;50.306;8.570;2023-04-21T01:50:34;97668.25;;;5.57;100.00
20987;BME280;10652;50.306;8.570;2023-04-21T01:54:36;97677.81;;;5.56;100.00
20987;BME280;10652;50.306;8.570;2023-04-21T01:58:38;97676.75;;;5.62;100.00
20987;BME280;10652;50.306;8.570;2023-04-21T02:02:40;97675.06;;;5.61;100.00
20987;BME280;10652;50.306;8.570;2023-04-21T02:06:43;97673.34;;;5.60;100.00
20987;BME280;10652;50.306;8.570;2023-04-21T02:10:45;97670.03;;;5.55;100.00
20987;BME280;10652;50.306;8.570;2023-04-21T02:14:47;97670.25;;;5.49;100.00
20987;BME280;10652;50.306;8.570;2023-04-21T02:18:51;97674.09;;;5.37;100.00
20987;BME280;10652;50.306;8.570;2023-04-21T02:22:53;97675.78;;;5.40;100.00
20987;BME280;10652;50.306;8.570;2023-04-21T02:26:55;97670.09;;;5.53;100.00
20987;BME280;10652;50.306;8.570;2023-04-21T02:30:59;97674.16;;;5.62;100.00
20987;BME280;10652;50.306;8.570;2023-04-21T02:35:01;97671.56;;;5.62;100.00
20987;BME280;10652;50.306;8.570;2023-04-21T02:39:04;97681.97;;;5.62;100.00
20987;BME280;10652;50.306;8.570;2023-04-21T02:43:07;97680.06;;;5.67;100.00
20987;BME280;10652;50.306;8.570;2023-04-21T02:47:09;97682.41;;;5.75;100.00
20987;BME280;10652;50.306;8.570;2023-04-21T02:51:12;97683.84;;;5.83;100.00
20987;BME280;10652;50.306;8.570;2023-04-21T02:55:15;97682.06;;;5.85;100.00
20987;BME280;10652;50.306;8.570;2023-04-21T02:59:17;97689.03;;;5.85;100.00
20987;BME280;10652;50.306;8.570;2023-04-21T03:03:19;97680.19;;;5.89;100.00
20987;BME280;10652;50.306;8.570;2023-04-21T03:07:23;97679.66;;;5.79;100.00
20987;BME280;10652;50.306;8.570;2023-04-21T03:11:25;97686.38;;;5.60;100.00
20987;BME280;10652;50.306;8.570;2023-04-21T03:15:28;97678.84;;;5.51;100.00
20987;BME280;10652;50.306;8.570;2023-04-21T03:19:30;97689.50;;;5.45;100.00
20987;BME280;10652;50.306;8.570;2023-04-21T03:23:33;97691.00;;;5.52;100.00
20987;BME280;10652;50.306;8.570;2023-04-21T03:27:36;97692.56;;;5.57;100.00
20987;BME280;10652;50.306;8.570;2023-04-21T03:31:38;97673.47;;;5.57;100.00
20987;BME280;10652;50.306;8.570;2023-04-21T03:35:40;97682.91;;;5.59;100.00
20987;BME280;10652;50.306;8.570;2023-04-21T03:39:42;97685.00;;;5.75;100.00
20987;BME280;10652;50.306;8.570;2023-04-21T03:43:45;97691.56;;;5.86;100.00
20987;BME280;10652;50.306;8.570;2023-04-21T03:47:47;97698.38;;;5.90;100.00
20987;BME280;10652;50.306;8.570;2023-04-21T03:51:50;97702.53;;;5.96;100.00
20987;BME280;10652;50.306;8.570;2023-04-21T03:55:52;97687.78;;;5.95;100.00
20987;BME280;10652;50.306;8.570;2023-04-21T03:59:54;97685.13;;;5.96;100.00
20987;BME280;10652;50.306;8.570;2023-04-21T04:03:56;97679.03;;;5.97;100.00
20987;BME280;10652;50.306;8.570;2023-04-21T04:07:58;97684.44;;;5.91;100.00
20987;BME280;10652;50.306;8.570;2023-04-21T04:12:00;97679.53;;;5.82;100.00
20987;BME280;10652;50.306;8.570;2023-04-21T04:16:04;97673.38;;;5.85;100.00
20987;BME280;10652;50.306;8.570;2023-04-21T04:20:07;97684.41;;;5.93;100.00
20987;BME280;10652;50.306;8.570;2023-04-21T04:24:09;97688.75;;;5.92;100.00
20987;BME280;10652;50.306;8.570;2023-04-21T04:28:12;97684.59;;;5.87;100.00
20987;BME280;10652;50.306;8.570;2023-04-21T04:32:14;97692.38;;;5.88;100.00
20987;BME280;10652;50.306;8.570;2023-04-21T04:36:16;97685.34;;;5.90;100.00
20987;BME280;10652;50.306;8.570;2023-04-21T04:40:18;97689.66;;;5.91;100.00
20987;BME280;10652;50.306;8.570;2023-04-21T04:44:21;97688.72;;;5.94;100.00
20987;BME280;10652;50.306;8.570;2023-04-21T04:48:24;97689.50;;;5.96;100.00
20987;BME280;10652;50.306;8.570;2023-04-21T04:52:27;97690.19;;;6.01;100.00
20987;BME280;10652;50.306;8.570;2023-04-21T04:56:29;97684.84;;;6.04;100.00
20987;BME280;10652;50.306;8.570;2023-04-21T05:00:31;97682.63;;;5.93;100.00
20987;BME280;10652;50.306;8.570;2023-04-21T05:04:34;97679.22;;;5.91;100.00
20987;BME280;10652;50.306;8.570;2023-04-21T05:08:36;97676.88;;;6.09;100.00
20987;BME280;10652;50.306;8.570;2023-04-21T05:12:38;97681.44;;;6.03;100.00
20987;BME280;10652;50.306;8.570;2023-04-21T05:16:42;97682.31;;;6.02;100.00
20987;BME280;10652;50.306;8.570;2023-04-21T05:20:44;97686.16;;;5.92;100.00
20987;BME280;10652;50.306;8.570;2023-04-21T05:24:47;97692.53;;;5.84;100.00
20987;BME280;10652;50.306;8.570;2023-04-21T05:28:49;97699.75;;;5.76;100.00
20987;BME280;10652;50.306;8.570;2023-04-21T05:32:51;97707.41;;;5.80;100.00
20987;BME280;10652;50.306;8.570;2023-04-21T05:36:53;97703.31;;;5.73;100.00
20987;BME280;10652;50.306;8.570;2023-04-21T05:40:56;97691.47;;;5.89;100.00
20987;BME280;10652;50.306;8.570;2023-04-21T05:44:58;97684.03;;;6.03;100.00
20987;BME280;10652;50.306;8.570;2023-04-21T05:49:00;97689.72;;;6.15;100.00
20987;BME280;10652;50.306;8.570;2023-04-21T05:53:05;97695.66;;;6.18;100.00
20987;BME280;10652;50.306;8.570;2023-04-21T05:57:07;97707.75;;;6.21;100.00
20987;BME280;10652;50.306;8.570;2023-04-21T06:01:09;97696.28;;;6.26;100.00
20987;BME280;10652;50.306;8.570;2023-04-21T06:05:12;97691.56;;;6.36;100.00
20987;BME280;10652;50.306;8.570;2023-04-21T06:09:14;97692.94;;;6.46;100.00
20987;BME280;10652;50.306;8.570;2023-04-21T06:13:16;97688.44;;;6.51;100.00
20987;BME280;10652;50.306;8.570;2023-04-21T06:17:18;97689.00;;;6.59;100.00
20987;BME280;10652;50.306;8.570;2023-04-21T06:21:20;97694.00;;;6.65;100.00
20987;BME280;10652;50.306;8.570;2023-04-21T06:25:23;97691.25;;;6.68;100.00
20987;BME280;10652;50.306;8.570;2023-04-21T06:29:25;97693.59;;;6.76;100.00
20987;BME280;10652;50.306;8.570;2023-04-21T06:33:28;97696.31;;;6.73;100.00
20987;BME280;10652;50.306;8.570;2023-04-21T06:37:30;97684.91;;;6.75;100.00
20987;BME280;10652;50.306;8.570;2023-04-21T06:41:32;97683.09;;;6.77;100.00
20987;BME280;10652;50.306;8.570;2023-04-21T06:45:34;97679.44;;;6.81;100.00
20987;BME280;10652;50.306;8.570;2023-04-21T06:49:36;97678.75;;;7.00;100.00
20987;BME280;10652;50.306;8.570;2023-04-21T06:53:38;97680.75;;;7.15;100.00
20987;BME280;10652;50.306;8.570;2023-04-21T06:57:41;97695.19;;;7.25;100.00
20987;BME280;10652;50.306;8.570;2023-04-21T07:01:43;97683.88;;;7.24;100.00
20987;BME280;10652;50.306;8.570;2023-04-21T07:05:45;97679.13;;;7.34;100.00
20987;BME280;10652;50.306;8.570;2023-04-21T07:09:48;97686.28;;;7.51;100.00
20987;BME280;10652;50.306;8.570;2023-04-21T07:13:50;97688.47;;;7.61;100.00
20987;BME280;10652;50.306;8.570;2023-04-21T07:17:52;97700.00;;;7.77;100.00
20987;BME280;10652;50.306;8.570;2023-04-21T07:21:54;97697.94;;;7.86;100.00
20987;BME280;10652;50.306;8.570;2023-04-21T07:25:56;97689.75;;;7.93;100.00
20987;BME280;10652;50.306;8.570;2023-04-21T07:29:58;97693.59;;;8.05;100.00
20987;BME280;10652;50.306;8.570;2023-04-21T07:34:00;97698.59;;;8.11;100.00
20987;BME280;10652;50.306;8.570;2023-04-21T07:38:02;97706.28;;;8.14;100.00
20987;BME280;10652;50.306;8.570;2023-04-21T07:42:04;97693.13;;;8.17;100.00
20987;BME280;10652;50.306;8.570;2023-04-21T07:46:09;97696.50;;;8.19;100.00
20987;BME280;10652;50.306;8.570;2023-04-21T07:50:11;97692.44;;;8.32;100.00
20987;BME280;10652;50.306;8.570;2023-04-21T07:54:13;97701.13;;;8.53;100.00
20987;BME280;10652;50.306;8.570;2023-04-21T07:58:15;97702.84;;;8.73;100.00
20987;BME280;10652;50.306;8.570;2023-04-21T08:02:17;97695.84;;;8.92;100.00
20987;BME280;10652;50.306;8.570;2023-04-21T08:06:20;97693.38;;;9.26;100.00
20987;BME280;10652;50.306;8.570;2023-04-21T08:10:22;97686.41;;;9.44;100.00
20987;BME280;10652;50.306;8.570;2023-04-21T08:14:24;97682.16;;;9.41;100.00
20987;BME280;10652;50.306;8.570;2023-04-21T08:18:27;97690.81;;;9.43;100.00
20987;BME280;10652;50.306;8.570;2023-04-21T08:22:29;97678.97;;;9.71;100.00
20987;BME280;10652;50.306;8.570;2023-04-21T08:26:32;97664.13;;;9.88;100.00
20987;BME280;10652;50.306;8.570;2023-04-21T08:30:34;97670.66;;;9.97;100.00
20987;BME280;10652;50.306;8.570;2023-04-21T08:34:36;97662.41;;;10.04;100.00
20987;BME280;10652;50.306;8.570;2023-04-21T08:38:41;97664.78;;;10.09;100.00
20987;BME280;10652;50.306;8.570;2023-04-21T08:42:44;97675.66;;;10.19;100.00
20987;BME280;10652;50.306;8.570;2023-04-21T08:46:49;97676.66;;;10.33;100.00
20987;BME280;10652;50.306;8.570;2023-04-21T08:50:52;97676.09;;;10.44;100.00
20987;BME280;10652;50.306;8.570;2023-04-21T08:54:55;97662.94;;;10.61;100.00
20987;BME280;10652;50.306;8.570;2023-04-21T08:58:57;97654.13;;;10.78;100.00
20987;BME280;10652;50.306;8.570;2023-04-21T09:02:59;97663.31;;;11.02;100.00
20987;BME280;10652;50.306;8.570;2023-04-21T09:07:03;97668.44;;;11.21;100.00
20987;BME280;10652;50.306;8.570;2023-04-21T09:11:05;97667.69;;;11.34;100.00
20987;BME280;10652;50.306;8.570;2023-04-21T09:15:09;97680.19;;;11.61;100.00
20987;BME280;10652;50.306;8.570;2023-04-21T09:19:13;97678.88;;;11.84;100.00
20987;BME280;10652;50.306;8.570;2023-04-21T09:23:17;97684.53;;;11.62;96.19
20987;BME280;10652;50.306;8.570;2023-04-21T09:27:20;97684.97;;;11.39;97.13
20987;BME280;10652;50.306;8.570;2023-04-21T09:31:23;97669.97;;;11.25;96.83
20987;BME280;10652;50.306;8.570;2023-04-21T09:35:32;97674.38;;;11.24;95.13
20987;BME280;10652;50.306;8.570;2023-04-21T09:39:34;97669.44;;;11.18;96.66
20987;BME280;10652;50.306;8.570;2023-04-21T09:43:53;97686.41;;;11.13;96.13
20987;BME280;10652;50.306;8.570;2023-04-21T09:47:57;97686.06;;;11.03;95.12
20987;BME280;10652;50.306;8.570;2023-04-21T09:52:02;97682.41;;;10.90;95.10
20987;BME280;10652;50.306;8.570;2023-04-21T09:56:11;97674.91;;;10.82;95.43
20987;BME280;10652;50.306;8.570;2023-04-21T10:00:14;97679.59;;;10.93;96.82
20987;BME280;10652;50.306;8.570;2023-04-21T10:04:20;97674.84;;;11.00;96.34
20987;BME280;10652;50.306;8.570;2023-04-21T10:08:25;97683.56;;;11.00;96.46
20987;BME280;10652;50.306;8.570;2023-04-21T10:12:28;97671.34;;;10.99;97.43
20987;BME280;10652;50.306;8.570;2023-04-21T10:16:30;97678.41;;;10.99;96.85
20987;BME280;10652;50.306;8.570;2023-04-21T10:21:03;97668.78;;;11.15;96.91
20987;BME280;10652;50.306;8.570;2023-04-21T10:25:07;97675.72;;;11.31;96.16
20987;BME280;10652;50.306;8.570;2023-04-21T10:29:10;97666.91;;;11.32;94.76
20987;BME280;10652;50.306;8.570;2023-04-21T10:33:16;97659.53;;;11.23;94.42
20987;BME280;10652;50.306;8.570;2023-04-21T10:37:18;97656.91;;;11.23;94.41
20987;BME280;10652;50.306;8.570;2023-04-21T10:41:33;97652.81;;;11.18;94.80
20987;BME280;10652;50.306;8.570;2023-04-21T10:45:37;97658.09;;;11.33;95.92
20987;BME280;10652;50.306;8.570;2023-04-21T10:49:39;97651.97;;;11.49;95.57
20987;BME280;10652;50.306;8.570;2023-04-21T10:53:42;97649.47;;;11.61;95.60
20987;BME280;10652;50.306;8.570;2023-04-21T10:57:45;97644.16;;;11.77;93.94
20987;BME280;10652;50.306;8.570;2023-04-21T11:01:47;97646.63;;;11.80;93.17
20987;BME280;10652;50.306;8.570;2023-04-21T11:05:49;97638.50;;;11.99;93.25
20987;BME280;10652;50.306;8.570;2023-04-21T11:10:00;97635.25;;;12.23;91.85
20987;BME280;10652;50.306;8.570;2023-04-21T11:14:02;97635.75;;;12.58;91.16
20987;BME280;10652;50.306;8.570;2023-04-21T11:18:04;97638.88;;;12.79;88.20
20987;BME280;10652;50.306;8.570;2023-04-21T11:22:08;97625.84;;;12.90;85.94
20987;BME280;10652;50.306;8.570;2023-04-21T11:26:10;97631.38;;;13.00;85.41
20987;BME280;10652;50.306;8.570;2023-04-21T11:30:12;97627.31;;;13.08;83.37
20987;BME280;10652;50.306;8.570;2023-04-21T11:34:15;97617.03;;;13.18;83.13
20987;BME280;10652;50.306;8.570;2023-04-21T11:38:23;97608.13;;;13.33;81.63
20987;BME280;10652;50.306;8.570;2023-04-21T11:42:25;97596.66;;;13.47;80.95
20987;BME280;10652;50.306;8.570;2023-04-21T11:46:27;97594.88;;;13.47;80.13
20987;BME280;10652;50.306;8.570;2023-04-21T11:50:30;97593.41;;;13.43;79.44
20987;BME280;10652;50.306;8.570;2023-04-21T11:54:37;97596.34;;;13.39;78.87
20987;BME280;10652;50.306;8.570;2023-04-21T11:58:40;97592.94;;;13.37;79.67
20987;BME280;10652;50.306;8.570;2023-04-21T12:02:42;97593.88;;;13.36;78.88
20987;BME280;10652;50.306;8.570;2023-04-21T12:06:53;97586.94;;;13.35;79.01
20987;BME280;10652;50.306;8.570;2023-04-21T12:10:55;97592.09;;;13.36;78.63
20987;BME280;10652;50.306;8.570;2023-04-21T12:15:00;97592.84;;;13.38;78.72
20987;BME280;10652;50.306;8.570;2023-04-21T12:19:04;97588.75;;;13.47;79.08
20987;BME280;10652;50.306;8.570;2023-04-21T12:23:06;97583.13;;;13.53;77.85
20987;BME280;10652;50.306;8.570;2023-04-21T12:27:08;97579.31;;;13.57;77.09
20987;BME280;10652;50.306;8.570;2023-04-21T12:31:10;97574.28;;;13.67;77.21
20987;BME280;10652;50.306;8.570;2023-04-21T12:35:12;97574.06;;;13.70;74.79
20987;BME280;10652;50.306;8.570;2023-04-21T12:39:14;97565.38;;;13.68;74.56
20987;BME280;10652;50.306;8.570;2023-04-21T12:43:18;97570.91;;;13.77;76.47
20987;BME280;10652;50.306;8.570;2023-04-21T12:47:20;97568.16;;;13.91;76.36
20987;BME280;10652;50.306;8.570;2023-04-21T12:51:22;97565.44;;;14.06;75.53
20987;BME280;10652;50.306;8.570;2023-04-21T12:55:24;97553.47;;;14.13;74.46
20987;BME280;10652;50.306;8.570;2023-04-21T12:59:26;97555.28;;;14.25;72.81
20987;BME280;10652;50.306;8.570;2023-04-21T13:03:29;97555.38;;;14.36;73.80
20987;BME280;10652;50.306;8.570;2023-04-21T13:07:35;97553.38;;;14.52;72.59
20987;BME280;10652;50.306;8.570;2023-04-21T13:11:37;97543.69;;;14.76;71.82
20987;BME280;10652;50.306;8.570;2023-04-21T13:15:39;97548.81;;;15.03;71.91
20987;BME280;10652;50.306;8.570;2023-04-21T13:19:42;97544.41;;;15.15;70.39
20987;BME280;10652;50.306;8.570;2023-04-21T13:23:44;97543.50;;;15.27;69.40
20987;BME280;10652;50.306;8.570;2023-04-21T13:27:46;97524.53;;;15.33;68.51
20987;BME280;10652;50.306;8.570;2023-04-21T13:31:48;97523.09;;;15.40;68.76
20987;BME280;10652;50.306;8.570;2023-04-21T13:35:50;97516.16;;;15.50;69.59
20987;BME280;10652;50.306;8.570;2023-04-21T13:39:52;97521.25;;;15.53;66.81
20987;BME280;10652;50.306;8.570;2023-04-21T13:43:54;97508.19;;;15.39;66.40
20987;BME280;10652;50.306;8.570;2023-04-21T13:47:56;97511.91;;;15.37;66.87
20987;BME280;10652;50.306;8.570;2023-04-21T13:52:01;97501.66;;;15.32;67.01
20987;BME280;10652;50.306;8.570;2023-04-21T13:56:04;97492.53;;;15.36;67.57
20987;BME280;10652;50.306;8.570;2023-04-21T14:00:06;97489.69;;;15.39;67.57
20987;BME280;10652;50.306;8.570;2023-04-21T14:04:11;97482.00;;;15.47;68.10
20987;BME280;10652;50.306;8.570;2023-04-21T14:08:14;97468.31;;;15.53;67.76
20987;BME280;10652;50.306;8.570;2023-04-21T14:12:17;97464.50;;;15.68;68.39
20987;BME280;10652;50.306;8.570;2023-04-21T14:16:19;97460.44;;;15.75;66.83
20987;BME280;10652;50.306;8.570;2023-04-21T14:20:21;97452.97;;;15.81;66.86
20987;BME280;10652;50.306;8.570;2023-04-21T14:24:23;97438.28;;;15.88;65.87
20987;BME280;10652;50.306;8.570;2023-04-21T14:28:29;97425.41;;;15.94;65.08
20987;BME280;10652;50.306;8.570;2023-04-21T14:32:32;97420.19;;;16.04;65.24
20987;BME280;10652;50.306;8.570;2023-04-21T14:36:35;97416.13;;;16.11;64.58
20987;BME280;10652;50.306;8.570;2023-04-21T14:40:38;97415.00;;;16.13;61.93
20987;BME280;10652;50.306;8.570;2023-04-21T14:44:40;97411.28;;;16.16;63.91
20987;BME280;10652;50.306;8.570;2023-04-21T14:48:42;97405.84;;;16.17;63.21
20987;BME280;10652;50.306;8.570;2023-04-21T14:52:44;97401.41;;;16.18;60.74
20987;BME280;10652;50.306;8.570;2023-04-21T14:56:50;97389.84;;;16.19;61.83
20987;BME280;10652;50.306;8.570;2023-04-21T15:00:52;97392.25;;;16.22;60.81
20987;BME280;10652;50.306;8.570;2023-04-21T15:04:55;97377.44;;;16.19;61.25
20987;BME280;10652;50.306;8.570;2023-04-21T15:08:57;97382.63;;;16.21;61.29
20987;BME280;10652;50.306;8.570;2023-04-21T15:12:59;97369.13;;;16.24;61.05
20987;BME280;10652;50.306;8.570;2023-04-21T15:17:01;97380.31;;;16.28;60.22
20987;BME280;10652;50.306;8.570;2023-04-21T15:21:04;97369.97;;;16.25;59.75
20987;BME280;10652;50.306;8.570;2023-04-21T15:25:06;97372.72;;;16.23;60.01
20987;BME280;10652;50.306;8.570;2023-04-21T15:29:08;97357.56;;;16.25;60.33
20987;BME280;10652;50.306;8.570;2023-04-21T15:33:10;97349.47;;;16.27;59.95
20987;BME280;10652;50.306;8.570;2023-04-21T15:37:12;97339.69;;;16.27;59.89
20987;BME280;10652;50.306;8.570;2023-04-21T15:41:18;97354.91;;;16.25;57.90
20987;BME280;10652;50.306;8.570;2023-04-21T15:45:20;97340.66;;;16.26;57.97
20987;BME280;10652;50.306;8.570;2023-04-21T15:49:22;97338.16;;;16.25;57.92
20987;BME280;10652;50.306;8.570;2023-04-21T15:53:34;97341.66;;;16.25;58.77
20987;BME280;10652;50.306;8.570;2023-04-21T15:57:38;97343.09;;;16.29;58.86
20987;BME280;10652;50.306;8.570;2023-04-21T16:01:40;97335.97;;;16.30;58.89
20987;BME280;10652;50.306;8.570;2023-04-21T16:05:42;97325.59;;;16.27;58.48
20987;BME280;10652;50.306;8.570;2023-04-21T16:09:44;97323.09;;;16.25;58.85
20987;BME280;10652;50.306;8.570;2023-04-21T16:13:47;97316.09;;;16.24;58.38
20987;BME280;10652;50.306;8.570;2023-04-21T16:17:49;97308.66;;;16.18;58.02
20987;BME280;10652;50.306;8.570;2023-04-21T16:21:51;97304.31;;;16.17;58.96
20987;BME280;10652;50.306;8.570;2023-04-21T16:25:53;97294.69;;;16.16;58.77
20987;BME280;10652;50.306;8.570;2023-04-21T16:29:55;97293.13;;;16.13;59.14
20987;BME280;10652;50.306;8.570;2023-04-21T16:33:57;97279.19;;;16.11;58.96
20987;BME280;10652;50.306;8.570;2023-04-21T16:38:01;97283.88;;;16.08;59.65
20987;BME280;10652;50.306;8.570;2023-04-21T16:42:03;97281.47;;;16.05;60.30
20987;BME280;10652;50.306;8.570;2023-04-21T16:46:05;97284.38;;;16.02;60.05
20987;BME280;10652;50.306;8.570;2023-04-21T16:50:08;97272.34;;;15.98;61.59
20987;BME280;10652;50.306;8.570;2023-04-21T16:54:10;97278.72;;;15.95;60.48
20987;BME280;10652;50.306;8.570;2023-04-21T16:58:13;97280.66;;;15.93;60.27
20987;BME280;10652;50.306;8.570;2023-04-21T17:02:15;97282.59;;;15.91;60.74
20987;BME280;10652;50.306;8.570;2023-04-21T17:06:17;97284.66;;;15.88;60.59
20987;BME280;10652;50.306;8.570;2023-04-21T17:10:21;97287.78;;;15.82;60.87
20987;BME280;10652;50.306;8.570;2023-04-21T17:14:23;97286.47;;;15.76;61.14
20987;BME280;10652;50.306;8.570;2023-04-21T17:18:25;97285.16;;;15.70;61.42
20987;BME280;10652;50.306;8.570;2023-04-21T17:22:27;97287.34;;;15.65;61.92
20987;BME280;10652;50.306;8.570;2023-04-21T17:26:29;97284.66;;;15.54;61.92
20987;BME280;10652;50.306;8.570;2023-04-21T17:30:32;97289.00;;;15.44;62.40
20987;BME280;10652;50.306;8.570;2023-04-21T17:34:36;97296.94;;;15.33;63.21
20987;BME280;10652;50.306;8.570;2023-04-21T17:38:39;97291.63;;;15.22;63.73
20987;BME280;10652;50.306;8.570;2023-04-21T17:42:43;97292.34;;;15.13;64.32
20987;BME280;10652;50.306;8.570;2023-04-21T17:46:45;97291.50;;;15.01;65.20
20987;BME280;10652;50.306;8.570;2023-04-21T17:50:48;97299.88;;;14.95;65.64
20987;BME280;10652;50.306;8.570;2023-04-21T17:54:50;97302.38;;;14.85;66.26
20987;BME280;10652;50.306;8.570;2023-04-21T17:58:52;97304.41;;;14.82;67.04
20987;BME280;10652;50.306;8.570;2023-04-21T18:02:54;97298.63;;;14.77;68.40
20987;BME280;10652;50.306;8.570;2023-04-21T18:06:56;97287.09;;;14.67;69.02
20987;BME280;10652;50.306;8.570;2023-04-21T18:10:58;97284.38;;;14.56;69.67
20987;BME280;10652;50.306;8.570;2023-04-21T18:15:00;97285.41;;;14.42;70.88
20987;BME280;10652;50.306;8.570;2023-04-21T18:19:03;97291.72;;;14.28;72.02
20987;BME280;10652;50.306;8.570;2023-04-21T18:23:05;97293.69;;;14.14;73.21
20987;BME280;10652;50.306;8.570;2023-04-21T18:27:07;97308.50;;;14.03;74.08
20987;BME280;10652;50.306;8.570;2023-04-21T18:31:11;97329.47;;;13.94;74.85
20987;BME280;10652;50.306;8.570;2023-04-21T18:35:14;97337.44;;;14.05;74.78
20987;BME280;10652;50.306;8.570;2023-04-21T18:39:16;97340.03;;;14.18;71.06
20987;BME280;10652;50.306;8.570;2023-04-21T18:43:18;97326.28;;;14.25;69.75
20987;BME280;10652;50.306;8.570;2023-04-21T18:47:20;97335.22;;;14.12;67.55
20987;BME280;10652;50.306;8.570;2023-04-21T18:51:22;97330.19;;;13.96;66.44
20987;BME280;10652;50.306;8.570;2023-04-21T18:55:24;97328.03;;;13.77;65.71
20987;BME280;10652;50.306;8.570;2023-04-21T18:59:27;97328.16;;;13.63;65.71
20987;BME280;10652;50.306;8.570;2023-04-21T19:03:29;97330.28;;;13.58;65.32
20987;BME280;10652;50.306;8.570;2023-04-21T19:07:33;97345.50;;;13.54;65.68
20987;BME280;10652;50.306;8.570;2023-04-21T19:11:35;97342.50;;;13.46;66.20
20987;BME280;10652;50.306;8.570;2023-04-21T19:15:37;97338.63;;;13.39;67.12
20987;BME280;10652;50.306;8.570;2023-04-21T19:19:39;97335.56;;;13.33;68.29
20987;BME280;10652;50.306;8.570;2023-04-21T19:23:42;97330.19;;;13.22;68.82
20987;BME280;10652;50.306;8.570;2023-04-21T19:27:44;97330.50;;;13.04;70.17
20987;BME280;10652;50.306;8.570;2023-04-21T19:31:47;97331.34;;;12.92;71.05
20987;BME280;10652;50.306;8.570;2023-04-21T19:35:49;97326.75;;;12.69;72.61
20987;BME280;10652;50.306;8.570;2023-04-21T19:39:51;97315.91;;;12.61;73.78
20987;BME280;10652;50.306;8.570;2023-04-21T19:43:53;97314.19;;;12.60;73.74
20987;BME280;10652;50.306;8.570;2023-04-21T19:47:55;97328.00;;;12.51;73.83
20987;BME280;10652;50.306;8.570;2023-04-21T19:51:57;97328.00;;;12.51;74.81
20987;BME280;10652;50.306;8.570;2023-04-21T19:55:59;97331.38;;;12.53;74.40
20987;BME280;10652;50.306;8.570;2023-04-21T20:00:02;97329.59;;;12.53;74.92
20987;BME280;10652;50.306;8.570;2023-04-21T20:04:13;97332.41;;;12.50;75.63
20987;BME280;10652;50.306;8.570;2023-04-21T20:08:15;97341.38;;;12.48;75.68
20987;BME280;10652;50.306;8.570;2023-04-21T20:12:17;97330.00;;;12.33;76.47
20987;BME280;10652;50.306;8.570;2023-04-21T20:16:19;97328.28;;;12.19;77.21
20987;BME280;10652;50.306;8.570;2023-04-21T20:20:21;97331.66;;;12.21;77.29
20987;BME280;10652;50.306;8.570;2023-04-21T20:24:23;97324.78;;;12.19;76.96
20987;BME280;10652;50.306;8.570;2023-04-21T20:28:26;97318.00;;;12.02;76.81
20987;BME280;10652;50.306;8.570;2023-04-21T20:32:28;97331.03;;;11.77;77.25
20987;BME280;10652;50.306;8.570;2023-04-21T20:36:30;97328.41;;;11.63;77.39
20987;BME280;10652;50.306;8.570;2023-04-21T20:40:33;97337.44;;;11.59;77.10
20987;BME280;10652;50.306;8.570;2023-04-21T20:44:37;97335.78;;;11.44;76.43
20987;BME280;10652;50.306;8.570;2023-04-21T20:48:39;97336.91;;;11.25;75.91
20987;BME280;10652;50.306;8.570;2023-04-21T20:52:41;97329.25;;;11.07;75.45
20987;BME280;10652;50.306;8.570;2023-04-21T20:56:43;97340.50;;;10.95;75.92
20987;BME280;10652;50.306;8.570;2023-04-21T21:00:45;97346.97;;;10.89;76.18
20987;BME280;10652;50.306;8.570;2023-04-21T21:04:47;97355.59;;;10.91;75.16
20987;BME280;10652;50.306;8.570;2023-04-21T21:08:49;97348.84;;;11.01;73.61
20987;BME280;10652;50.306;8.570;2023-04-21T21:12:52;97350.88;;;11.12;71.24
20987;BME280;10652;50.306;8.570;2023-04-21T21:16:54;97349.09;;;11.26;68.33
20987;BME280;10652;50.306;8.570;2023-04-21T21:20:57;97337.72;;;11.40;66.45
20987;BME280;10652;50.306;8.570;2023-04-21T21:24:59;97336.44;;;11.47;66.31